Time;durP1;ratioP1;P1;durP2;ratioP2;P2;SDS_P1;SDS_P2;PMS_P1;PMS_P2;Temp;Humidity;BMP_temperature;BMP_pressure;BME280_temperature;BME280_humidity;BME280_pressure;Samples;Min_cycle;Max_cycle;Signal;HPM_P1;HPM_P2
2024/02/17 00:01:42;;;;;;;;;1.00;1.00;;;;;;;;5089013;27;45233;-71
2024/02/17 00:04:07;;;;;;;;;1.50;1.25;;;;;;;;5094787;27;45342;-71
2024/02/17 00:06:32;;;;;;;;;3.00;2.00;;;;;;;;5082052;27;45267;-71
2024/02/17 00:08:58;;;;;;;;;1.50;1.50;;;;;;;;5082540;27;45805;-71
2024/02/17 00:11:23;;;;;;;;;1.33;1.33;;;;;;;;5080625;27;45593;-71
2024/02/17 00:13:48;;;;;;;;;4.00;1.67;;;;;;;;5080222;27;45306;-71
2024/02/17 00:16:13;;;;;;;;;3.00;1.00;;;;;;;;5080195;27;45476;-71
2024/02/17 00:18:38;;;;;;;;;2.33;2.00;;;;;;;;5089570;27;45248;-71
2024/02/17 00:21:04;;;;;;;;;2.00;2.00;;;;;;;;5095717;27;45437;-71
2024/02/17 00:23:29;;;;;;;;;2.00;2.00;;;;;;;;5100435;27;46261;-71
2024/02/17 00:25:55;;;;;;;;;1.25;1.00;;;;;;;;5102317;27;45341;-71
2024/02/17 00:28:25;;;;;;;;;2.50;2.50;;;;;;;;5084965;27;45527;-72
2024/02/17 00:30:51;;;;;;;;;1.25;1.00;;;;;;;;5093011;27;45483;-72
2024/02/17 00:33:16;;;;;;;;;2.25;2.25;;;;;;;;5083146;27;46069;-71
2024/02/17 00:35:43;;;;;;;;;3.00;3.00;;;;;;;;5081193;27;45395;-71
2024/02/17 00:38:08;;;;;;;;;2.75;2.00;;;;;;;;5091164;27;45329;-71
2024/02/17 00:40:33;;;;;;;;;2.00;2.00;;;;;;;;5084935;27;45224;-71
2024/02/17 00:42:58;;;;;;;;;3.75;0.50;;;;;;;;5100165;27;45483;-71
2024/02/17 00:45:24;;;;;;;;;2.00;1.00;;;;;;;;5094721;27;46892;-71
2024/02/17 00:47:49;;;;;;;;;3.33;3.00;;;;;;;;5081515;27;45255;-71
2024/02/17 00:50:14;;;;;;;;;2.33;1.00;;;;;;;;5093680;27;45298;-71
2024/02/17 00:52:39;;;;;;;;;2.00;2.00;;;;;;;;5089573;27;46014;-71
2024/02/17 00:55:04;;;;;;;;;1.00;1.00;;;;;;;;5102066;27;45409;-71
2024/02/17 00:57:30;;;;;;;;;2.25;1.00;;;;;;;;5084521;27;45638;-71
2024/02/17 00:59:55;;;;;;;;;2.67;2.67;;;;;;;;5082589;27;45365;-71
2024/02/17 01:02:20;;;;;;;;;3.00;1.00;;;;;;;;5093240;27;46311;-72
2024/02/17 01:04:45;;;;;;;;;0.67;0.67;;;;;;;;5095905;27;45427;-71
2024/02/17 01:07:10;;;;;;;;;3.67;1.00;;;;;;;;5081266;27;45625;-71
2024/02/17 01:09:35;;;;;;;;;1.00;1.00;;;;;;;;5101542;27;45580;-72
2024/02/17 01:12:01;;;;;;;;;2.00;1.00;;;;;;;;5086070;27;45603;-72
2024/02/17 01:14:26;;;;;;;;;2.00;1.00;;;;;;;;5072958;27;45574;-72
2024/02/17 01:16:51;;;;;;;;;1.00;1.00;;;;;;;;5094753;27;45338;-72
2024/02/17 01:19:16;;;;;;;;;1.67;1.00;;;;;;;;5101590;27;45306;-72
2024/02/17 01:21:41;;;;;;;;;1.00;1.00;;;;;;;;5087642;27;45475;-72
2024/02/17 01:24:09;;;;;;;;;1.67;1.67;;;;;;;;5088005;27;45599;-72
2024/02/17 01:26:34;;;;;;;;;2.50;1.00;;;;;;;;5087440;27;45399;-72
2024/02/17 01:28:59;;;;;;;;;0.00;0.00;;;;;;;;5088059;27;45367;-72
2024/02/17 01:31:24;;;;;;;;;3.00;2.00;;;;;;;;5085897;27;46171;-72
2024/02/17 01:33:51;;;;;;;;;2.67;2.33;;;;;;;;5080597;27;45444;-72
2024/02/17 01:36:19;;;;;;;;;1.00;0.25;;;;;;;;5085667;27;45322;-72
2024/02/17 01:38:45;;;;;;;;;2.50;2.00;;;;;;;;5080136;27;45491;-72
2024/02/17 01:41:11;;;;;;;;;1.75;1.00;;;;;;;;5086326;27;46616;-72
2024/02/17 01:43:36;;;;;;;;;2.75;2.75;;;;;;;;5086615;27;45347;-72
2024/02/17 01:46:01;;;;;;;;;2.00;1.00;;;;;;;;5078356;27;45509;-72
2024/02/17 01:48:27;;;;;;;;;2.00;1.25;;;;;;;;5080214;27;45539;-72
2024/02/17 01:50:52;;;;;;;;;4.25;2.00;;;;;;;;5086936;27;45409;-72
2024/02/17 01:53:17;;;;;;;;;4.33;2.33;;;;;;;;5087988;27;45416;-72
2024/02/17 01:55:43;;;;;;;;;4.00;2.00;;;;;;;;5094118;27;45344;-72
2024/02/17 01:58:09;;;;;;;;;2.50;2.00;;;;;;;;5092764;27;45369;-72
2024/02/17 02:00:34;;;;;;;;;2.00;2.00;;;;;;;;5087103;27;46090;-72
2024/02/17 02:03:00;;;;;;;;;4.00;2.25;;;;;;;;5094982;27;45370;-72
2024/02/17 02:05:25;;;;;;;;;4.00;3.00;;;;;;;;5078212;27;45428;-71
2024/02/17 02:07:50;;;;;;;;;2.00;2.00;;;;;;;;5080297;27;45314;-71
2024/02/17 02:10:16;;;;;;;;;1.00;1.00;;;;;;;;5092008;27;46019;-72
2024/02/17 02:12:41;;;;;;;;;5.00;2.00;;;;;;;;5092483;27;45222;-71
2024/02/17 02:15:09;;;;;;;;;2.00;2.00;;;;;;;;5078422;27;45447;-72
2024/02/17 02:17:35;;;;;;;;;1.25;1.25;;;;;;;;5094254;27;46551;-72
2024/02/17 02:20:00;;;;;;;;;1.00;1.00;;;;;;;;5080062;27;45492;-72
2024/02/17 02:22:25;;;;;;;;;0.67;0.67;;;;;;;;5079940;27;45497;-72
2024/02/17 02:24:54;;;;;;;;;2.00;2.00;;;;;;;;5080206;27;45369;-72
2024/02/17 02:27:19;;;;;;;;;2.00;1.00;;;;;;;;5078451;28;45473;-72
2024/02/17 02:29:47;;;;;;;;;2.00;2.00;;;;;;;;5079916;28;46297;-72
2024/02/17 02:32:12;;;;;;;;;2.00;0.50;;;;;;;;5079519;28;45517;-71
2024/02/17 02:34:37;;;;;;;;;1.00;1.00;;;;;;;;5079229;27;45371;-71
2024/02/17 02:37:02;;;;;;;;;2.00;1.00;;;;;;;;5079971;27;45574;-72
2024/02/17 02:39:28;;;;;;;;;1.33;0.00;;;;;;;;5087787;27;46618;-71
2024/02/17 02:41:53;;;;;;;;;1.00;1.00;;;;;;;;5079820;27;45408;-72
2024/02/17 02:44:18;;;;;;;;;3.00;1.00;;;;;;;;5077743;27;45416;-72
2024/02/17 02:46:43;;;;;;;;;3.00;1.00;;;;;;;;5090056;27;45399;-72
2024/02/17 02:49:08;;;;;;;;;1.00;1.00;;;;;;;;5067251;27;45475;-72
2024/02/17 02:51:34;;;;;;;;;1.33;1.33;;;;;;;;5091603;27;45384;-72
2024/02/17 02:53:59;;;;;;;;;0.67;0.67;;;;;;;;5095435;27;45320;-72
2024/02/17 02:56:25;;;;;;;;;1.00;1.00;;;;;;;;5083759;27;45393;-72
2024/02/17 02:58:50;;;;;;;;;3.00;2.00;;;;;;;;5082135;27;46171;-72
2024/02/17 03:01:15;;;;;;;;;1.33;0.33;;;;;;;;5082896;27;45660;-71
2024/02/17 03:03:41;;;;;;;;;3.00;1.00;;;;;;;;5087476;27;45426;-72
2024/02/17 03:06:06;;;;;;;;;3.25;1.00;;;;;;;;5080315;27;45385;-72
2024/02/17 03:08:31;;;;;;;;;3.33;2.00;;;;;;;;5079421;27;45453;-72
2024/02/17 03:10:56;;;;;;;;;0.00;0.00;;;;;;;;5089075;27;45441;-71
2024/02/17 03:13:21;;;;;;;;;1.00;1.00;;;;;;;;5079419;27;45540;-72
2024/02/17 03:15:47;;;;;;;;;1.67;1.00;;;;;;;;5081353;27;45605;-71
2024/02/17 03:18:12;;;;;;;;;2.25;1.00;;;;;;;;5099485;27;45437;-71
2024/02/17 03:20:37;;;;;;;;;0.33;0.00;;;;;;;;5084757;27;45569;-71
2024/02/17 03:23:02;;;;;;;;;2.00;1.00;;;;;;;;5090559;27;45352;-71
2024/02/17 03:25:27;;;;;;;;;2.00;1.00;;;;;;;;5095626;27;45353;-71
2024/02/17 03:27:53;;;;;;;;;2.00;0.00;;;;;;;;5092916;27;46039;-72
2024/02/17 03:30:18;;;;;;;;;3.00;2.00;;;;;;;;5087773;27;45318;-72
2024/02/17 03:32:43;;;;;;;;;1.50;1.00;;;;;;;;5077471;27;45354;-72
2024/02/17 03:35:08;;;;;;;;;0.00;0.00;;;;;;;;5095754;27;45290;-72
2024/02/17 03:37:34;;;;;;;;;2.75;1.00;;;;;;;;5085381;27;45570;-72
2024/02/17 03:39:59;;;;;;;;;1.33;1.33;;;;;;;;5084678;27;45517;-72
2024/02/17 03:42:24;;;;;;;;;2.00;1.00;;;;;;;;5092753;27;45658;-72
2024/02/17 03:44:49;;;;;;;;;1.67;1.00;;;;;;;;5087519;27;45547;-72
2024/02/17 03:47:14;;;;;;;;;1.00;1.00;;;;;;;;5092104;27;46155;-72
2024/02/17 03:49:40;;;;;;;;;1.50;1.50;;;;;;;;5089366;27;45382;-71
2024/02/17 03:52:06;;;;;;;;;3.00;2.00;;;;;;;;5082065;27;45401;-71
2024/02/17 03:54:31;;;;;;;;;4.00;1.75;;;;;;;;5077595;28;45508;-72
2024/02/17 03:56:57;;;;;;;;;3.67;2.00;;;;;;;;5077076;27;46082;-71
2024/02/17 03:59:22;;;;;;;;;1.00;1.00;;;;;;;;5078913;27;45312;-71
2024/02/17 04:01:47;;;;;;;;;3.33;1.00;;;;;;;;5081642;27;45306;-71
2024/02/17 04:04:12;;;;;;;;;1.00;1.00;;;;;;;;5084307;27;45463;-71
2024/02/17 04:06:38;;;;;;;;;3.50;1.00;;;;;;;;5091162;27;46311;-71
2024/02/17 04:09:03;;;;;;;;;2.00;1.00;;;;;;;;5078705;27;45256;-71
2024/02/17 04:11:28;;;;;;;;;1.75;1.00;;;;;;;;5076882;27;45215;-71
2024/02/17 04:13:56;;;;;;;;;1.00;1.00;;;;;;;;5078654;27;45359;-72
2024/02/17 04:16:21;;;;;;;;;2.75;1.75;;;;;;;;5078104;27;47147;-72
2024/02/17 04:18:47;;;;;;;;;1.75;1.00;;;;;;;;5090444;27;45322;-72
2024/02/17 04:21:13;;;;;;;;;3.50;1.75;;;;;;;;5099065;27;45449;-71
2024/02/17 04:23:38;;;;;;;;;4.67;1.67;;;;;;;;5099083;27;45339;-71
2024/02/17 04:26:06;;;;;;;;;1.00;1.00;;;;;;;;5093194;27;45609;-72
2024/02/17 04:28:33;;;;;;;;;1.50;1.50;;;;;;;;5081968;27;45515;-72
2024/02/17 04:30:58;;;;;;;;;2.00;1.00;;;;;;;;5087136;27;45484;-72
2024/02/17 04:33:23;;;;;;;;;4.33;2.00;;;;;;;;5098236;27;45525;-72
2024/02/17 04:35:51;;;;;;;;;2.00;2.00;;;;;;;;5084123;27;47416;-71
2024/02/17 04:38:16;;;;;;;;;3.00;1.00;;;;;;;;5081578;27;45478;-71
2024/02/17 04:40:41;;;;;;;;;1.00;1.00;;;;;;;;5081803;27;45415;-71
2024/02/17 04:43:07;;;;;;;;;1.75;1.75;;;;;;;;5081645;27;45384;-72
2024/02/17 04:45:32;;;;;;;;;3.25;1.25;;;;;;;;5081420;27;46926;-71
2024/02/17 04:47:57;;;;;;;;;4.33;1.00;;;;;;;;5081419;27;45369;-72
2024/02/17 04:50:22;;;;;;;;;2.33;1.33;;;;;;;;5081520;27;45523;-72
2024/02/17 04:52:47;;;;;;;;;1.00;1.00;;;;;;;;5081878;27;45289;-71
2024/02/17 04:55:13;;;;;;;;;1.00;0.33;;;;;;;;5081452;27;45683;-72
2024/02/17 04:57:38;;;;;;;;;1.00;1.00;;;;;;;;5079811;27;45381;-72
2024/02/17 05:00:05;;;;;;;;;2.00;1.00;;;;;;;;5079136;27;45642;-72
2024/02/17 05:02:31;;;;;;;;;2.00;1.00;;;;;;;;5076952;27;45642;-72
2024/02/17 05:04:56;;;;;;;;;1.00;1.00;;;;;;;;5072206;27;47527;-72
2024/02/17 05:07:21;;;;;;;;;3.00;1.00;;;;;;;;5083483;27;45430;-72
2024/02/17 05:09:46;;;;;;;;;1.00;1.00;;;;;;;;5092744;27;45480;-72
2024/02/17 05:12:11;;;;;;;;;2.00;1.00;;;;;;;;5082844;27;45429;-72
2024/02/17 05:14:37;;;;;;;;;1.33;0.33;;;;;;;;5101565;27;45236;-72
2024/02/17 05:17:05;;;;;;;;;2.00;0.25;;;;;;;;5085566;27;45396;-72
2024/02/17 05:19:31;;;;;;;;;2.25;1.00;;;;;;;;5071143;27;45401;-72
2024/02/17 05:21:58;;;;;;;;;1.50;1.00;;;;;;;;5079328;27;45396;-72
2024/02/17 05:24:23;;;;;;;;;1.00;1.00;;;;;;;;5081084;27;46126;-72
2024/02/17 05:26:49;;;;;;;;;0.50;0.00;;;;;;;;5080961;27;45512;-72
2024/02/17 05:29:14;;;;;;;;;1.00;1.00;;;;;;;;5080127;27;45591;-72
2024/02/17 05:31:39;;;;;;;;;1.75;0.00;;;;;;;;5080599;27;45396;-72
2024/02/17 05:34:05;;;;;;;;;1.00;1.00;;;;;;;;5095074;27;46153;-72
2024/02/17 05:36:31;;;;;;;;;1.00;1.00;;;;;;;;5088592;27;45269;-72
2024/02/17 05:38:56;;;;;;;;;0.00;0.00;;;;;;;;5085800;27;45328;-72
2024/02/17 05:41:22;;;;;;;;;1.00;0.33;;;;;;;;5080769;27;45313;-72
2024/02/17 05:43:47;;;;;;;;;2.50;1.00;;;;;;;;5080649;27;45493;-72
2024/02/17 05:46:12;;;;;;;;;2.00;1.00;;;;;;;;5080570;27;45473;-72
2024/02/17 05:48:38;;;;;;;;;2.33;1.67;;;;;;;;5080720;27;45521;-72
2024/02/17 05:51:03;;;;;;;;;0.25;0.00;;;;;;;;5080438;27;45468;-72
2024/02/17 05:53:28;;;;;;;;;1.50;1.00;;;;;;;;5080476;27;45449;-72
2024/02/17 05:55:54;;;;;;;;;0.50;0.50;;;;;;;;5079293;28;45318;-72
2024/02/17 05:58:19;;;;;;;;;0.67;0.67;;;;;;;;5075716;27;45402;-72
2024/02/17 06:00:44;;;;;;;;;2.00;1.00;;;;;;;;5088881;27;45609;-72
2024/02/17 06:03:09;;;;;;;;;0.33;0.33;;;;;;;;5093370;27;45431;-72
2024/02/17 06:05:35;;;;;;;;;2.00;2.00;;;;;;;;5079090;27;45357;-72
2024/02/17 06:08:00;;;;;;;;;0.67;0.67;;;;;;;;5080556;27;45456;-72
2024/02/17 06:10:25;;;;;;;;;1.00;1.00;;;;;;;;5079120;27;45563;-72
2024/02/17 06:12:50;;;;;;;;;3.00;2.00;;;;;;;;5079595;27;46342;-72
2024/02/17 06:15:16;;;;;;;;;2.00;1.50;;;;;;;;5080017;27;45459;-72
2024/02/17 06:17:46;;;;;;;;;2.00;1.00;;;;;;;;5100094;27;45412;-72
2024/02/17 06:22:55;;;;;;;;;2.75;1.00;;;;;;;;5089831;27;45414;-72
2024/02/17 06:25:22;;;;;;;;;3.00;1.33;;;;;;;;5100399;27;45642;-72
2024/02/17 06:27:47;;;;;;;;;3.00;2.00;;;;;;;;5090930;27;45389;-72
2024/02/17 06:30:14;;;;;;;;;4.00;2.00;;;;;;;;5093616;27;45305;-71
2024/02/17 06:32:39;;;;;;;;;1.75;1.75;;;;;;;;5086816;27;46199;-72
2024/02/17 06:35:05;;;;;;;;;1.25;1.25;;;;;;;;5086122;27;45978;-73
2024/02/17 06:37:30;;;;;;;;;1.75;1.25;;;;;;;;5088991;27;45313;-72
2024/02/17 06:39:55;;;;;;;;;1.75;1.00;;;;;;;;5084115;27;45530;-72
2024/02/17 06:42:20;;;;;;;;;2.67;1.00;;;;;;;;5088739;27;45405;-72
2024/02/17 06:44:46;;;;;;;;;2.00;2.00;;;;;;;;5097820;27;45794;-72
2024/02/17 06:47:11;;;;;;;;;1.25;1.25;;;;;;;;5079694;28;45371;-72
2024/02/17 06:49:36;;;;;;;;;2.00;2.00;;;;;;;;5092570;27;45431;-72
2024/02/17 06:52:01;;;;;;;;;4.50;1.50;;;;;;;;5085926;27;46148;-72
2024/02/17 06:54:26;;;;;;;;;3.33;2.00;;;;;;;;5096601;27;45563;-72
2024/02/17 06:56:51;;;;;;;;;3.00;1.00;;;;;;;;5079503;27;45559;-71
2024/02/17 06:59:17;;;;;;;;;0.67;0.67;;;;;;;;5079639;27;45420;-71
2024/02/17 07:01:42;;;;;;;;;2.25;2.25;;;;;;;;5081262;27;46316;-72
2024/02/17 07:04:08;;;;;;;;;1.67;1.00;;;;;;;;5089973;27;45440;-72
2024/02/17 07:06:34;;;;;;;;;3.00;2.00;;;;;;;;5082835;27;45436;-71
2024/02/17 07:08:59;;;;;;;;;3.33;2.00;;;;;;;;5089641;27;45357;-72
2024/02/17 07:11:24;;;;;;;;;3.67;1.67;;;;;;;;5088892;27;46186;-72
2024/02/17 07:13:49;;;;;;;;;2.00;2.00;;;;;;;;5088291;27;45412;-72
2024/02/17 07:16:14;;;;;;;;;2.67;2.00;;;;;;;;5096383;27;45382;-72
2024/02/17 07:18:41;;;;;;;;;4.33;3.00;;;;;;;;5099824;27;45843;-72
2024/02/17 07:21:06;;;;;;;;;1.00;1.00;;;;;;;;5080379;27;46309;-72
2024/02/17 07:23:31;;;;;;;;;3.33;2.00;;;;;;;;5078573;27;45480;-72
2024/02/17 07:25:57;;;;;;;;;1.00;1.00;;;;;;;;5091439;27;45737;-72
2024/02/17 07:28:22;;;;;;;;;2.75;2.00;;;;;;;;5076952;27;45426;-72
2024/02/17 07:30:47;;;;;;;;;2.00;2.00;;;;;;;;5082378;27;45288;-66
2024/02/17 07:33:14;;;;;;;;;5.00;2.00;;;;;;;;5084772;27;45495;-66
2024/02/17 07:35:42;;;;;;;;;2.75;2.75;;;;;;;;5078316;27;45478;-67
2024/02/17 07:38:07;;;;;;;;;4.00;3.00;;;;;;;;5090284;27;45603;-66
2024/02/17 07:40:32;;;;;;;;;3.25;2.25;;;;;;;;5076733;27;46350;-66
2024/02/17 07:42:58;;;;;;;;;4.00;4.00;;;;;;;;5078767;27;45471;-66
2024/02/17 07:45:23;;;;;;;;;3.00;3.00;;;;;;;;5077941;27;45417;-66
2024/02/17 07:47:48;;;;;;;;;6.00;3.00;;;;;;;;5071111;27;45408;-66
2024/02/17 07:50:13;;;;;;;;;3.00;3.00;;;;;;;;5073176;27;46214;-66
2024/02/17 07:52:38;;;;;;;;;2.00;2.00;;;;;;;;5078501;27;45321;-66
2024/02/17 07:55:04;;;;;;;;;2.00;2.00;;;;;;;;5085221;27;45500;-66
2024/02/17 07:57:29;;;;;;;;;4.25;2.75;;;;;;;;5083047;27;45635;-66
2024/02/17 07:59:54;;;;;;;;;4.00;3.67;;;;;;;;5069154;27;46393;-65
2024/02/17 08:02:20;;;;;;;;;3.00;3.00;;;;;;;;5078190;27;45412;-66
2024/02/17 08:04:45;;;;;;;;;4.50;3.25;;;;;;;;5081257;27;45375;-66
2024/02/17 08:07:10;;;;;;;;;3.75;3.75;;;;;;;;5062264;28;45655;-65
2024/02/17 08:09:36;;;;;;;;;6.00;4.25;;;;;;;;5080577;27;45397;-65
2024/02/17 08:12:01;;;;;;;;;6.67;3.33;;;;;;;;5078317;27;45487;-65
2024/02/17 08:14:26;;;;;;;;;5.67;5.00;;;;;;;;5079933;27;45329;-65
2024/02/17 08:16:51;;;;;;;;;3.67;3.00;;;;;;;;5071445;27;45270;-66
2024/02/17 08:19:16;;;;;;;;;3.00;3.00;;;;;;;;5081732;27;46553;-65
2024/02/17 08:21:41;;;;;;;;;3.33;2.00;;;;;;;;5081259;27;45239;-66
2024/02/17 08:24:07;;;;;;;;;4.33;3.00;;;;;;;;5076233;27;45339;-65
2024/02/17 08:26:33;;;;;;;;;5.33;3.67;;;;;;;;5074795;27;45415;-66
2024/02/17 08:28:58;;;;;;;;;2.75;2.00;;;;;;;;5079157;27;45369;-66
2024/02/17 08:31:23;;;;;;;;;3.50;3.00;;;;;;;;5078567;27;45433;-66
2024/02/17 08:33:49;;;;;;;;;2.00;2.00;;;;;;;;5075010;27;45302;-67
2024/02/17 08:36:15;;;;;;;;;6.50;3.75;;;;;;;;5080959;27;45309;-66
2024/02/17 08:38:41;;;;;;;;;4.50;3.50;;;;;;;;5078802;27;45488;-66
2024/02/17 08:41:06;;;;;;;;;2.67;2.00;;;;;;;;5077928;27;45493;-66
2024/02/17 08:43:31;;;;;;;;;3.67;2.33;;;;;;;;5080827;27;45548;-67
2024/02/17 08:45:56;;;;;;;;;3.00;3.00;;;;;;;;5079763;27;45357;-68
2024/02/17 08:48:21;;;;;;;;;8.00;5.00;;;;;;;;5070997;27;45496;-68
2024/02/17 08:50:48;;;;;;;;;3.25;2.75;;;;;;;;5071912;28;45531;-67
2024/02/17 08:53:13;;;;;;;;;5.75;3.75;;;;;;;;5066475;27;45360;-68
2024/02/17 08:55:38;;;;;;;;;4.00;4.00;;;;;;;;5075320;27;45418;-67
2024/02/17 08:58:03;;;;;;;;;7.00;5.00;;;;;;;;5073329;27;47036;-67
2024/02/17 09:00:29;;;;;;;;;4.00;3.00;;;;;;;;5088209;27;45693;-67
2024/02/17 09:02:54;;;;;;;;;7.00;4.67;;;;;;;;5080656;27;47296;-67
2024/02/17 09:05:19;;;;;;;;;4.75;3.00;;;;;;;;5073401;27;45679;-67
2024/02/17 09:07:44;;;;;;;;;4.50;3.00;;;;;;;;5069254;27;47841;-67
2024/02/17 09:10:15;;;;;;;;;4.00;2.00;;;;;;;;5085426;27;45484;-67
2024/02/17 09:12:40;;;;;;;;;5.00;4.00;;;;;;;;5086665;27;45528;-67
2024/02/17 09:15:05;;;;;;;;;3.00;3.00;;;;;;;;5077554;27;46323;-68
2024/02/17 09:17:31;;;;;;;;;3.00;3.00;;;;;;;;5080225;27;45638;-68
2024/02/17 09:19:56;;;;;;;;;3.00;3.00;;;;;;;;5089339;27;45686;-68
2024/02/17 09:22:21;;;;;;;;;3.33;2.00;;;;;;;;5072681;27;45400;-67
2024/02/17 09:24:46;;;;;;;;;4.00;4.00;;;;;;;;5085317;27;45380;-68
2024/02/17 09:27:11;;;;;;;;;5.33;3.67;;;;;;;;5090045;27;46180;-67
2024/02/17 09:29:37;;;;;;;;;4.67;2.67;;;;;;;;5086167;27;45617;-67
2024/02/17 09:32:02;;;;;;;;;5.33;4.33;;;;;;;;5077971;27;45700;-68
2024/02/17 09:34:29;;;;;;;;;3.00;3.00;;;;;;;;5075306;27;45641;-68
2024/02/17 09:36:55;;;;;;;;;4.50;4.50;;;;;;;;5077185;27;45512;-68
2024/02/17 09:39:21;;;;;;;;;3.75;3.00;;;;;;;;5081064;27;45468;-69
2024/02/17 09:41:46;;;;;;;;;2.00;2.00;;;;;;;;5081074;27;45468;-69
2024/02/17 09:44:11;;;;;;;;;4.00;3.00;;;;;;;;5077155;27;45479;-70
2024/02/17 09:46:37;;;;;;;;;2.25;2.25;;;;;;;;5079556;27;45484;-68
2024/02/17 09:49:03;;;;;;;;;4.00;3.00;;;;;;;;5080390;27;45912;-69
2024/02/17 09:51:32;;;;;;;;;2.50;2.25;;;;;;;;5081954;27;45983;-68
2024/02/17 09:53:58;;;;;;;;;3.00;3.00;;;;;;;;5081555;27;45501;-68
2024/02/17 09:56:24;;;;;;;;;6.67;4.00;;;;;;;;5077973;27;46963;-68
2024/02/17 09:58:49;;;;;;;;;1.00;1.00;;;;;;;;5077507;27;45833;-68
2024/02/17 10:01:14;;;;;;;;;3.00;2.33;;;;;;;;5078080;27;45599;-68
2024/02/17 10:03:39;;;;;;;;;5.00;2.33;;;;;;;;5066128;27;46005;-68
2024/02/17 10:06:14;;;;;;;;;1.67;1.67;;;;;;;;5072389;27;46456;-68
2024/02/17 10:08:40;;;;;;;;;3.50;3.00;;;;;;;;5076822;27;45409;-68
2024/02/17 10:11:12;;;;;;;;;4.25;4.25;;;;;;;;5078233;27;45550;-68
2024/02/17 10:13:38;;;;;;;;;3.50;2.00;;;;;;;;5075468;27;45586;-68
2024/02/17 10:16:07;;;;;;;;;4.00;2.00;;;;;;;;5079887;27;47176;-67
2024/02/17 10:18:36;;;;;;;;;2.25;2.00;;;;;;;;5074656;27;46911;-67
2024/02/17 10:21:01;;;;;;;;;2.25;1.00;;;;;;;;5079709;27;45596;-68
2024/02/17 10:23:27;;;;;;;;;2.67;2.00;;;;;;;;5076230;27;45552;-68
2024/02/17 10:25:52;;;;;;;;;4.67;2.00;;;;;;;;5077403;27;46817;-69
2024/02/17 10:28:17;;;;;;;;;3.00;3.00;;;;;;;;5079692;27;45627;-69
2024/02/17 10:30:42;;;;;;;;;3.00;2.00;;;;;;;;5077094;27;45729;-69
2024/02/17 10:33:10;;;;;;;;;5.00;3.00;;;;;;;;5079063;27;45511;-69
2024/02/17 10:35:36;;;;;;;;;2.50;1.50;;;;;;;;5077583;27;47695;-69
2024/02/17 10:38:01;;;;;;;;;1.00;1.00;;;;;;;;5077289;27;45504;-69
2024/02/17 10:40:28;;;;;;;;;4.00;4.00;;;;;;;;5078704;27;46020;-69
2024/02/17 10:42:53;;;;;;;;;3.00;3.00;;;;;;;;5076069;27;47100;-69
2024/02/17 10:45:19;;;;;;;;;4.50;4.50;;;;;;;;5080473;27;46203;-69
2024/02/17 10:47:46;;;;;;;;;5.00;3.75;;;;;;;;5074432;27;45468;-69
2024/02/17 10:50:13;;;;;;;;;3.50;3.00;;;;;;;;5079409;27;45498;-69
2024/02/17 10:52:41;;;;;;;;;2.00;2.00;;;;;;;;5078175;27;46846;-69
2024/02/17 10:55:08;;;;;;;;;2.75;2.75;;;;;;;;5077137;27;46554;-69
2024/02/17 10:57:39;;;;;;;;;4.00;2.75;;;;;;;;5073491;27;45646;-69
2024/02/17 11:00:06;;;;;;;;;2.50;1.00;;;;;;;;5079105;27;45898;-69
2024/02/17 11:02:32;;;;;;;;;3.25;1.00;;;;;;;;5077344;27;45635;-68
2024/02/17 11:04:58;;;;;;;;;3.00;2.75;;;;;;;;5074328;27;45509;-72
2024/02/17 11:07:23;;;;;;;;;2.25;1.25;;;;;;;;5078145;27;45361;-70
2024/02/17 11:09:49;;;;;;;;;2.25;2.25;;;;;;;;5078951;27;45343;-70
2024/02/17 11:12:34;;;;;;;;;1.00;1.00;;;;;;;;5077219;27;45673;-69
2024/02/17 11:15:00;;;;;;;;;1.00;1.00;;;;;;;;5076851;27;46883;-70
2024/02/17 11:17:29;;;;;;;;;2.00;2.00;;;;;;;;5080112;27;45370;-71
2024/02/17 11:20:04;;;;;;;;;2.00;2.00;;;;;;;;5068019;27;45475;-71
2024/02/17 11:22:30;;;;;;;;;1.00;1.00;;;;;;;;5074781;27;45499;-69
2024/02/17 11:24:55;;;;;;;;;3.00;2.00;;;;;;;;5077488;27;46337;-69
2024/02/17 11:27:20;;;;;;;;;1.75;1.00;;;;;;;;5082402;27;45474;-70
2024/02/17 11:29:45;;;;;;;;;4.33;1.00;;;;;;;;5080161;27;45369;-69
2024/02/17 11:32:13;;;;;;;;;2.33;1.00;;;;;;;;5073697;27;45380;-69
2024/02/17 11:34:39;;;;;;;;;2.25;2.00;;;;;;;;5072248;27;47380;-69
2024/02/17 11:37:06;;;;;;;;;2.00;2.00;;;;;;;;5082560;27;46174;-71
2024/02/17 11:39:31;;;;;;;;;2.00;2.00;;;;;;;;5073688;27;45594;-70
2024/02/17 11:41:58;;;;;;;;;2.00;2.00;;;;;;;;5087609;27;45460;-70
2024/02/17 11:44:23;;;;;;;;;3.00;2.00;;;;;;;;5082551;27;45844;-70
2024/02/17 11:46:49;;;;;;;;;1.00;1.00;;;;;;;;5077368;27;45805;-69
2024/02/17 11:49:14;;;;;;;;;3.00;2.00;;;;;;;;5081920;27;45414;-69
2024/02/17 11:51:40;;;;;;;;;4.00;3.00;;;;;;;;5075041;27;45598;-69
2024/02/17 11:54:05;;;;;;;;;1.25;1.25;;;;;;;;5076083;27;45958;-69
2024/02/17 11:56:32;;;;;;;;;4.75;4.00;;;;;;;;5074770;27;45545;-69
2024/02/17 11:58:57;;;;;;;;;5.50;3.00;;;;;;;;5078265;27;45532;-67
2024/02/17 12:01:23;;;;;;;;;3.75;3.75;;;;;;;;5092775;27;45871;-68
2024/02/17 12:03:48;;;;;;;;;1.00;1.00;;;;;;;;5076991;27;46382;-67
2024/02/17 12:06:13;;;;;;;;;5.00;5.00;;;;;;;;5079852;27;45453;-67
2024/02/17 12:08:40;;;;;;;;;2.00;2.00;;;;;;;;5079345;27;45921;-67
2024/02/17 12:11:06;;;;;;;;;4.00;2.00;;;;;;;;5076573;27;47083;-67
2024/02/17 12:13:31;;;;;;;;;1.00;1.00;;;;;;;;5078808;27;46053;-67
2024/02/17 12:16:03;;;;;;;;;2.75;2.50;;;;;;;;5078252;27;45598;-67
2024/02/17 12:18:28;;;;;;;;;4.00;3.00;;;;;;;;5079712;27;46616;-68
2024/02/17 12:20:54;;;;;;;;;2.00;2.00;;;;;;;;5076646;27;46231;-67
2024/02/17 12:23:19;;;;;;;;;1.75;1.75;;;;;;;;5085092;27;46113;-69
2024/02/17 12:25:44;;;;;;;;;2.75;1.00;;;;;;;;5084952;27;45550;-68
2024/02/17 12:28:10;;;;;;;;;3.67;3.67;;;;;;;;5072112;27;45489;-69
2024/02/17 12:30:45;;;;;;;;;9.75;9.75;;;;;;;;5073766;27;45485;-68
2024/02/17 12:33:11;;;;;;;;;2.00;1.00;;;;;;;;5078698;27;47362;-68
2024/02/17 12:35:42;;;;;;;;;2.50;2.50;;;;;;;;5077670;27;45713;-68
2024/02/17 12:38:09;;;;;;;;;1.75;1.75;;;;;;;;5070840;27;45553;-68
2024/02/17 12:40:34;;;;;;;;;2.75;2.75;;;;;;;;5077127;27;45852;-69
2024/02/17 12:43:00;;;;;;;;;3.33;2.00;;;;;;;;5086291;27;45747;-69
2024/02/17 12:45:30;;;;;;;;;4.25;4.00;;;;;;;;5077160;27;45373;-68
2024/02/17 12:48:04;;;;;;;;;1.00;1.00;;;;;;;;5078929;27;46688;-69
2024/02/17 12:50:30;;;;;;;;;4.00;2.25;;;;;;;;5089569;27;45519;-69
2024/02/17 12:53:14;;;;;;;;;3.00;3.00;;;;;;;;5078518;27;45763;-69
2024/02/17 12:55:40;;;;;;;;;3.00;2.00;;;;;;;;5079774;27;45715;-69
2024/02/17 12:58:05;;;;;;;;;5.00;4.00;;;;;;;;5076029;27;45902;-69
2024/02/17 13:00:31;;;;;;;;;3.50;2.50;;;;;;;;5077675;27;45553;-69
2024/02/17 13:02:56;;;;;;;;;2.00;2.00;;;;;;;;5069802;27;45485;-69
2024/02/17 13:05:22;;;;;;;;;1.75;1.00;;;;;;;;5070275;27;45588;-69
2024/02/17 13:07:47;;;;;;;;;3.00;2.00;;;;;;;;5089852;27;45416;-70
2024/02/17 13:10:13;;;;;;;;;3.50;2.50;;;;;;;;5088958;27;45611;-69
2024/02/17 13:12:38;;;;;;;;;1.00;1.00;;;;;;;;5084377;27;46999;-69
2024/02/17 13:15:04;;;;;;;;;1.00;1.00;;;;;;;;5079176;27;45595;-69
2024/02/17 13:17:30;;;;;;;;;6.50;2.00;;;;;;;;5073681;27;45461;-69
2024/02/17 13:19:55;;;;;;;;;1.00;1.00;;;;;;;;5076559;27;45845;-69
2024/02/17 13:22:20;;;;;;;;;1.33;1.33;;;;;;;;5077983;27;46676;-69
2024/02/17 13:24:46;;;;;;;;;2.00;1.50;;;;;;;;5077136;27;45369;-69
2024/02/17 13:27:11;;;;;;;;;2.33;1.33;;;;;;;;5073352;27;45654;-69
2024/02/17 13:29:36;;;;;;;;;2.00;2.00;;;;;;;;5078038;27;45625;-69
2024/02/17 13:32:02;;;;;;;;;5.00;2.00;;;;;;;;5073098;27;47604;-69
2024/02/17 13:34:28;;;;;;;;;1.75;1.25;;;;;;;;5075347;27;45940;-69
2024/02/17 13:36:53;;;;;;;;;3.00;1.00;;;;;;;;5079617;27;45501;-71
2024/02/17 13:39:18;;;;;;;;;1.33;1.33;;;;;;;;5076791;27;45703;-70
2024/02/17 13:41:43;;;;;;;;;2.00;2.00;;;;;;;;5074499;27;45426;-71
2024/02/17 13:44:08;;;;;;;;;2.00;1.00;;;;;;;;5075952;27;45699;-69
2024/02/17 13:46:34;;;;;;;;;2.00;2.00;;;;;;;;5078457;27;45617;-69
2024/02/17 13:48:59;;;;;;;;;2.00;1.00;;;;;;;;5074916;27;45698;-69
2024/02/17 13:51:25;;;;;;;;;1.00;1.00;;;;;;;;5073979;27;47223;-70
2024/02/17 13:53:50;;;;;;;;;2.00;1.25;;;;;;;;5069869;27;45481;-70
2024/02/17 13:56:15;;;;;;;;;2.25;1.75;;;;;;;;5072961;27;46129;-70
2024/02/17 13:58:40;;;;;;;;;2.00;2.00;;;;;;;;5073652;27;45366;-70
2024/02/17 14:01:06;;;;;;;;;2.75;1.25;;;;;;;;5080684;27;46844;-70
2024/02/17 14:03:31;;;;;;;;;4.00;3.00;;;;;;;;5080172;27;45345;-71
2024/02/17 14:05:58;;;;;;;;;2.00;1.00;;;;;;;;5080166;27;45871;-71
2024/02/17 14:08:23;;;;;;;;;5.00;1.25;;;;;;;;5075893;27;45444;-71
2024/02/17 14:10:49;;;;;;;;;2.33;2.00;;;;;;;;5071217;28;45364;-71
2024/02/17 14:13:14;;;;;;;;;6.00;3.67;;;;;;;;5082349;27;45588;-71
2024/02/17 14:15:39;;;;;;;;;3.00;1.00;;;;;;;;5078484;27;45314;-71
2024/02/17 14:18:04;;;;;;;;;0.00;0.00;;;;;;;;5079571;27;45302;-70
2024/02/17 14:20:30;;;;;;;;;1.00;1.00;;;;;;;;5072532;27;45329;-70
2024/02/17 14:22:55;;;;;;;;;2.00;1.67;;;;;;;;5079844;27;45267;-71
2024/02/17 14:25:20;;;;;;;;;3.00;1.00;;;;;;;;5090987;27;45313;-71
2024/02/17 14:27:45;;;;;;;;;1.00;1.00;;;;;;;;5080624;27;45255;-72
2024/02/17 14:30:11;;;;;;;;;2.33;2.00;;;;;;;;5077358;27;45887;-69
2024/02/17 14:32:36;;;;;;;;;2.75;1.50;;;;;;;;5081329;27;45862;-69
2024/02/17 14:35:02;;;;;;;;;1.33;1.33;;;;;;;;5070288;27;45343;-69
2024/02/17 14:37:27;;;;;;;;;1.50;1.50;;;;;;;;5075450;27;45536;-69